Huvudsida
METAR-TAF:

METAR-TAF

Flygplatser :

Vojens flygplats

Vojens, Danmark

latitud: 55-14N, longitud: 009-16E, höjd: 43 m

Aktuellt väderrapport

Denna rapport gjordes för 17 minuter sedan, klockan 13:50 UTC
Vind 18 kt från väst
Temperatur 17°C
Fuktighet 55%
Tryck 1020 hPa
Sikt 10 km eller mer
Få moln på en höjd av 3000 ft
Spridda moln på en höjd av 20000 ft

METAR: EKSP 191350Z 27018KT 9999 FEW030 SCT200 17/08 Q1020

Tid: 16:07 (14:07 UTC)

Väderprognos

Denna rapport gjordes för 2 timmar och 43 minuter sedan, klockan 11:24 UTC
Prognos gäller från 19 kl. 12 UTC till 20 kl. 12 UTC
Vind 15 kt från väst
Sikt 10 km eller mer
Spridda moln på en höjd av 3000 ft
Temporärt
från 19 kl. 12 UTC till 19 kl. 17 UTC
Vind 12 kt från väst i byarna ända upp till 28 kt

TAF: EKSP 191124Z 1912/2012 26015KT 9999 SCT030 TEMPO 1912/1917 27012G28KT

Aktuella väderrapporter och prognoser från 4000 flygplatser (METAR- och TAF-rapporter).

De tillgängliga stationerna syns som gula och röda prickar på kartan.

För musen över prickarna för att se namnen på stationerna.

Klicka sedan för att få väderrapporter och prognoser.

För att ändra kartan: Klicka på de gröna knapparna med ett svart kors på för att zooma in; den gröna knappen med ett streck på för att zooma ut; eller på de gröna pilarna för angränsande kartor.


METAR-TAF: